AirNav   Air Wisconsin Up To $57,000 Bonus
 
 1172 users online  

OR15 Horseman Heliport
Bend, Oregon, USA

GOING TO BEND?


FAA INFORMATION EFFECTIVE 25 FEBRUARY 2021

Location

FAA Identifier: OR15
Lat/Long: 44-08-48.4000N 121-22-15.1000W
44-08.806667N 121-22.251667W
44.1467778,-121.3708611
(estimated)
Elevation: 3420 ft. / 1042 m (estimated)
Variation: 18E (1995)
From city: 7 miles NW of BEND, OR
Time zone: UTC -8 (UTC -7 during Daylight Saving Time)
Zip code: 97701

Heliport Operations

Heliport use: Private use. Permission required prior to landing
Activation date: 06/2000
Control tower: no
ARTCC: SEATTLE CENTER
FSS: MC MINNVILLE FLIGHT SERVICE STATION
Attendance: DAWN-DUSK
Wind indicator: yes
Segmented circle: no

Heliport Communications

WX AWOS-3 at BDN (8 nm SE): 134.425 (541-382-1477)
WX ASOS at RDM (11 nm NE): 119.025 (541-504-8743)
WX AWOS-3PT at S21 (17 nm S): 128.325 (541-593-4623)

Nearby radio navigation aids

VOR radial/distance  VOR name  Freq  Var
DSDr186/7.0DESCHUTES VORTAC117.6018E

Heliport Services

Runway Information

Helipad H1

Dimensions: 24 x 24 ft. / 7 x 7 m
Surface: concrete
Traffic pattern: leftleft

Heliport Ownership and Management from official FAA records

Ownership: Privately-owned
Owner: DONALD A SVINTH
64629 HORSEMAN LANE
BEND, OR 97701
Phone 541-318-1110
Manager: DONALD A SVINTH
64629 HORSEMAN LANE
BEND, OR 97701
Phone 541-318-1110

Heliport Operational Statistics

Aircraft based on the field: 1
Helicopters: 1
    

Additional Remarks

A52-H1 15 FT BLDG 75 FT S AND 25 FT TREES 75 FT NW OF HELIPAD.
FOR CD CTC SEATTLE ARTCC AT 253-351-3694.

Instrument Procedures

There are no published instrument procedures at OR15.

Some nearby airports with instrument procedures:

KBDN - Bend Municipal Airport (8 nm SE)
KRDM - Roberts Field Airport (11 nm NE)
S21 - Sunriver Airport (17 nm S)
S39 - Prineville Airport (22 nm NE)
S33 - Madras Municipal Airport (33 nm N)
 
Loc | Ops | Rwys | IFR | FBO | Links
Com | Nav | Svcs | Stats | Notes
Area around OR15 (Horseman Heliport)
 
Road maps at: MapQuest Bing Google
 
Aerial photo
WARNING: Photo may not be current or correct
Aerial photo of OR15 (Horseman Heliport)
Do you have a better or more recent aerial photo of Horseman Heliport that you would like to share? If so, please send us your photo.

 
Sectional chart

 
Airport distance calculator
Flying to Horseman Heliport? Find the distance to fly.

From to OR15

Sunrise and sunset
Times for 01-Mar-2021
 Local
(UTC-8)
 Zulu
(UTC)
Morning civil twilight06:1414:14
Sunrise06:4314:43
Sunset17:5201:52
Evening civil twilight18:2102:21

Current date and time
Zulu (UTC)  01-Mar-2021 14:44:09
Local (UTC-8)  01-Mar-2021 06:44:09
 
METAR
KBDN 
8nm SE 
011415Z AUTO 14006KT 10SM CLR M01/M05 A3006 RMK AO2
KRDM 
11nm NE 
011356Z 05003KT 10SM CLR M01/M06 A3005 RMK AO2 SLP185 T10111056
KS21 
17nm S 
011415Z AUTO 19007KT 10SM CLR M05/M07 A3009 RMK AO2
TAF
KBDN 
8nm SE 
011120Z 0112/0212 17003KT P6SM SKC FM011900 20007KT P6SM SCT060 FM020000 25005KT P6SM BKN050 FM020400 18003KT P6SM SCT070
KRDM 
11nm NE 
281720Z 2818/0118 16005KT P6SM SCT250 FM010200 VRB03KT P6SM FEW070 BKN250 FM010600 VRB03KT P6SM BKN250
NOTAMs
Click for the latest NOTAMs
NOTAMs are issued by the DoD/FAA and will open in a separate window not controlled by AirNav.

 

 
 

Would you like to see your business listed on this page?

 If your business provides an interesting product or service to pilots, flight crews, aircraft, or users of the Horseman Heliport, you should consider listing it here.  To start the listing process, click on the button below
 
Add a business
 

Other Pages about Horseman Heliport

Update a link
 
Copyright © AirNav, LLC. All rights reserved. Privacy Policy  Contact